sensor_id;sensor_type;location;lat;lon;timestamp;P1;durP1;ratioP1;P2;durP2;ratioP2
10535;SDS011;5316;49.538;8.352;2022-10-30T00:00:18;12.93;;;8.57;;
10535;SDS011;5316;49.538;8.352;2022-10-30T00:02:45;14.43;;;8.37;;
10535;SDS011;5316;49.538;8.352;2022-10-30T00:05:13;20.30;;;12.10;;
10535;SDS011;5316;49.538;8.352;2022-10-30T00:07:40;17.00;;;10.27;;
10535;SDS011;5316;49.538;8.352;2022-10-30T00:10:08;25.70;;;18.10;;
10535;SDS011;5316;49.538;8.352;2022-10-30T00:12:35;12.53;;;8.60;;
10535;SDS011;5316;49.538;8.352;2022-10-30T00:15:02;15.33;;;8.30;;
10535;SDS011;5316;49.538;8.352;2022-10-30T00:17:29;15.13;;;8.40;;
10535;SDS011;5316;49.538;8.352;2022-10-30T00:19:56;29.37;;;17.10;;
10535;SDS011;5316;49.538;8.352;2022-10-30T00:22:24;30.40;;;19.83;;
10535;SDS011;5316;49.538;8.352;2022-10-30T00:24:51;15.43;;;9.13;;
10535;SDS011;5316;49.538;8.352;2022-10-30T00:27:18;15.00;;;8.80;;
10535;SDS011;5316;49.538;8.352;2022-10-30T00:29:45;16.50;;;8.53;;
10535;SDS011;5316;49.538;8.352;2022-10-30T00:32:14;12.53;;;8.20;;
10535;SDS011;5316;49.538;8.352;2022-10-30T00:34:41;15.33;;;7.50;;
10535;SDS011;5316;49.538;8.352;2022-10-30T00:37:08;17.00;;;8.10;;
10535;SDS011;5316;49.538;8.352;2022-10-30T00:39:36;14.70;;;8.87;;
10535;SDS011;5316;49.538;8.352;2022-10-30T00:42:02;14.83;;;8.07;;
10535;SDS011;5316;49.538;8.352;2022-10-30T00:44:40;14.47;;;8.07;;
10535;SDS011;5316;49.538;8.352;2022-10-30T00:47:12;18.83;;;7.67;;
10535;SDS011;5316;49.538;8.352;2022-10-30T00:49:44;15.00;;;7.90;;
10535;SDS011;5316;49.538;8.352;2022-10-30T00:52:16;12.20;;;8.23;;
10535;SDS011;5316;49.538;8.352;2022-10-30T00:54:45;14.13;;;8.23;;
10535;SDS011;5316;49.538;8.352;2022-10-30T00:57:12;13.43;;;8.80;;
10535;SDS011;5316;49.538;8.352;2022-10-30T00:59:39;14.17;;;8.40;;
10535;SDS011;5316;49.538;8.352;2022-10-30T01:02:06;18.37;;;8.87;;
10535;SDS011;5316;49.538;8.352;2022-10-30T01:04:34;16.37;;;8.33;;
10535;SDS011;5316;49.538;8.352;2022-10-30T01:07:04;16.17;;;8.40;;
10535;SDS011;5316;49.538;8.352;2022-10-30T01:09:34;15.73;;;8.93;;
10535;SDS011;5316;49.538;8.352;2022-10-30T01:12:03;21.07;;;9.10;;
10535;SDS011;5316;49.538;8.352;2022-10-30T01:14:31;16.73;;;9.27;;
10535;SDS011;5316;49.538;8.352;2022-10-30T01:17:03;14.70;;;9.70;;
10535;SDS011;5316;49.538;8.352;2022-10-30T01:19:41;14.33;;;9.03;;
10535;SDS011;5316;49.538;8.352;2022-10-30T01:22:17;17.93;;;9.40;;
10535;SDS011;5316;49.538;8.352;2022-10-30T01:24:57;14.63;;;8.27;;
10535;SDS011;5316;49.538;8.352;2022-10-30T01:27:38;12.50;;;8.67;;
10535;SDS011;5316;49.538;8.352;2022-10-30T01:30:16;13.20;;;8.60;;
10535;SDS011;5316;49.538;8.352;2022-10-30T01:32:52;15.93;;;8.60;;
10535;SDS011;5316;49.538;8.352;2022-10-30T01:35:31;17.97;;;8.43;;
10535;SDS011;5316;49.538;8.352;2022-10-30T01:38:06;19.03;;;8.50;;
10535;SDS011;5316;49.538;8.352;2022-10-30T01:40:39;13.83;;;8.20;;
10535;SDS011;5316;49.538;8.352;2022-10-30T01:43:10;12.63;;;8.13;;
10535;SDS011;5316;49.538;8.352;2022-10-30T01:45:45;13.90;;;8.07;;
10535;SDS011;5316;49.538;8.352;2022-10-30T01:48:34;15.97;;;8.20;;
10535;SDS011;5316;49.538;8.352;2022-10-30T01:51:16;10.73;;;8.13;;
10535;SDS011;5316;49.538;8.352;2022-10-30T01:53:50;12.17;;;7.67;;
10535;SDS011;5316;49.538;8.352;2022-10-30T01:56:26;15.53;;;8.17;;
10535;SDS011;5316;49.538;8.352;2022-10-30T01:59:08;13.77;;;8.60;;
10535;SDS011;5316;49.538;8.352;2022-10-30T02:01:40;15.43;;;9.33;;
10535;SDS011;5316;49.538;8.352;2022-10-30T02:04:07;13.70;;;7.80;;
10535;SDS011;5316;49.538;8.352;2022-10-30T02:06:35;9.47;;;7.80;;
10535;SDS011;5316;49.538;8.352;2022-10-30T02:09:03;17.17;;;7.80;;
10535;SDS011;5316;49.538;8.352;2022-10-30T02:11:30;16.20;;;8.70;;
10535;SDS011;5316;49.538;8.352;2022-10-30T02:13:59;21.47;;;14.10;;
10535;SDS011;5316;49.538;8.352;2022-10-30T02:16:31;16.67;;;8.70;;
10535;SDS011;5316;49.538;8.352;2022-10-30T02:19:02;11.80;;;7.83;;
10535;SDS011;5316;49.538;8.352;2022-10-30T02:21:31;12.30;;;7.73;;
10535;SDS011;5316;49.538;8.352;2022-10-30T02:23:58;12.20;;;7.83;;
10535;SDS011;5316;49.538;8.352;2022-10-30T02:26:25;15.63;;;7.63;;
10535;SDS011;5316;49.538;8.352;2022-10-30T02:28:52;13.57;;;8.23;;
10535;SDS011;5316;49.538;8.352;2022-10-30T02:31:18;11.87;;;7.73;;
10535;SDS011;5316;49.538;8.352;2022-10-30T02:33:45;9.47;;;6.97;;
10535;SDS011;5316;49.538;8.352;2022-10-30T02:36:12;13.87;;;8.20;;
10535;SDS011;5316;49.538;8.352;2022-10-30T02:38:41;12.03;;;7.40;;
10535;SDS011;5316;49.538;8.352;2022-10-30T02:41:08;12.50;;;7.13;;
10535;SDS011;5316;49.538;8.352;2022-10-30T02:43:35;16.93;;;8.23;;
10535;SDS011;5316;49.538;8.352;2022-10-30T02:46:02;15.83;;;7.90;;
10535;SDS011;5316;49.538;8.352;2022-10-30T02:48:29;10.33;;;7.70;;
10535;SDS011;5316;49.538;8.352;2022-10-30T02:50:58;15.10;;;7.63;;
10535;SDS011;5316;49.538;8.352;2022-10-30T02:53:25;15.13;;;7.87;;
10535;SDS011;5316;49.538;8.352;2022-10-30T02:55:53;17.67;;;8.57;;
10535;SDS011;5316;49.538;8.352;2022-10-30T02:58:20;13.53;;;8.27;;
10535;SDS011;5316;49.538;8.352;2022-10-30T03:00:47;14.20;;;8.43;;
10535;SDS011;5316;49.538;8.352;2022-10-30T03:03:14;13.00;;;8.30;;
10535;SDS011;5316;49.538;8.352;2022-10-30T03:05:41;12.70;;;7.43;;
10535;SDS011;5316;49.538;8.352;2022-10-30T03:08:07;15.90;;;7.83;;
10535;SDS011;5316;49.538;8.352;2022-10-30T03:10:34;11.93;;;7.77;;
10535;SDS011;5316;49.538;8.352;2022-10-30T03:13:02;12.33;;;7.73;;
10535;SDS011;5316;49.538;8.352;2022-10-30T03:15:29;15.13;;;7.77;;
10535;SDS011;5316;49.538;8.352;2022-10-30T03:17:56;12.30;;;7.93;;
10535;SDS011;5316;49.538;8.352;2022-10-30T03:20:22;13.33;;;8.47;;
10535;SDS011;5316;49.538;8.352;2022-10-30T03:22:49;15.57;;;7.77;;
10535;SDS011;5316;49.538;8.352;2022-10-30T03:25:16;15.23;;;8.60;;
10535;SDS011;5316;49.538;8.352;2022-10-30T03:27:47;15.10;;;8.30;;
10535;SDS011;5316;49.538;8.352;2022-10-30T03:30:15;14.57;;;7.60;;
10535;SDS011;5316;49.538;8.352;2022-10-30T03:32:42;14.47;;;8.20;;
10535;SDS011;5316;49.538;8.352;2022-10-30T03:35:08;12.93;;;8.30;;
10535;SDS011;5316;49.538;8.352;2022-10-30T03:37:35;13.73;;;8.73;;
10535;SDS011;5316;49.538;8.352;2022-10-30T03:40:02;15.73;;;8.33;;
10535;SDS011;5316;49.538;8.352;2022-10-30T03:42:29;13.43;;;7.73;;
10535;SDS011;5316;49.538;8.352;2022-10-30T03:44:55;14.80;;;8.20;;
10535;SDS011;5316;49.538;8.352;2022-10-30T03:47:23;13.73;;;7.73;;
10535;SDS011;5316;49.538;8.352;2022-10-30T03:49:50;14.97;;;8.00;;
10535;SDS011;5316;49.538;8.352;2022-10-30T03:52:17;11.80;;;7.53;;
10535;SDS011;5316;49.538;8.352;2022-10-30T03:54:43;17.07;;;8.27;;
10535;SDS011;5316;49.538;8.352;2022-10-30T03:57:10;14.20;;;7.97;;
10535;SDS011;5316;49.538;8.352;2022-10-30T03:59:37;12.37;;;8.23;;
10535;SDS011;5316;49.538;8.352;2022-10-30T04:02:03;12.57;;;8.47;;
10535;SDS011;5316;49.538;8.352;2022-10-30T04:04:31;14.70;;;8.00;;
10535;SDS011;5316;49.538;8.352;2022-10-30T04:06:58;14.77;;;8.30;;
10535;SDS011;5316;49.538;8.352;2022-10-30T04:09:25;14.37;;;7.97;;
10535;SDS011;5316;49.538;8.352;2022-10-30T04:11:51;16.83;;;9.00;;
10535;SDS011;5316;49.538;8.352;2022-10-30T04:14:18;13.00;;;8.33;;
10535;SDS011;5316;49.538;8.352;2022-10-30T04:16:45;15.20;;;8.80;;
10535;SDS011;5316;49.538;8.352;2022-10-30T04:19:12;14.00;;;8.60;;
10535;SDS011;5316;49.538;8.352;2022-10-30T04:21:40;14.50;;;8.93;;
10535;SDS011;5316;49.538;8.352;2022-10-30T04:24:07;11.60;;;8.20;;
10535;SDS011;5316;49.538;8.352;2022-10-30T04:26:34;15.30;;;8.50;;
10535;SDS011;5316;49.538;8.352;2022-10-30T04:29:01;11.57;;;8.60;;
10535;SDS011;5316;49.538;8.352;2022-10-30T04:31:27;12.50;;;8.63;;
10535;SDS011;5316;49.538;8.352;2022-10-30T04:33:54;16.73;;;8.70;;
10535;SDS011;5316;49.538;8.352;2022-10-30T04:36:21;13.10;;;8.47;;
10535;SDS011;5316;49.538;8.352;2022-10-30T04:38:55;12.17;;;8.13;;
10535;SDS011;5316;49.538;8.352;2022-10-30T04:41:21;13.13;;;8.53;;
10535;SDS011;5316;49.538;8.352;2022-10-30T04:43:48;13.20;;;8.50;;
10535;SDS011;5316;49.538;8.352;2022-10-30T04:46:15;18.27;;;8.57;;
10535;SDS011;5316;49.538;8.352;2022-10-30T04:48:42;14.40;;;8.57;;
10535;SDS011;5316;49.538;8.352;2022-10-30T04:51:09;13.60;;;9.30;;
10535;SDS011;5316;49.538;8.352;2022-10-30T04:53:36;13.13;;;8.13;;
10535;SDS011;5316;49.538;8.352;2022-10-30T04:56:05;13.53;;;8.40;;
10535;SDS011;5316;49.538;8.352;2022-10-30T04:58:32;14.00;;;8.53;;
10535;SDS011;5316;49.538;8.352;2022-10-30T05:00:59;15.87;;;9.23;;
10535;SDS011;5316;49.538;8.352;2022-10-30T05:03:26;15.63;;;9.40;;
10535;SDS011;5316;49.538;8.352;2022-10-30T05:05:54;15.53;;;9.00;;
10535;SDS011;5316;49.538;8.352;2022-10-30T05:08:24;11.73;;;8.73;;
10535;SDS011;5316;49.538;8.352;2022-10-30T05:10:51;14.50;;;8.37;;
10535;SDS011;5316;49.538;8.352;2022-10-30T05:13:19;16.77;;;8.90;;
10535;SDS011;5316;49.538;8.352;2022-10-30T05:15:46;14.37;;;9.17;;
10535;SDS011;5316;49.538;8.352;2022-10-30T05:18:12;15.17;;;8.77;;
10535;SDS011;5316;49.538;8.352;2022-10-30T05:20:39;12.87;;;8.67;;
10535;SDS011;5316;49.538;8.352;2022-10-30T05:23:06;15.50;;;9.73;;
10535;SDS011;5316;49.538;8.352;2022-10-30T05:25:34;15.33;;;9.13;;
10535;SDS011;5316;49.538;8.352;2022-10-30T05:28:01;13.40;;;8.77;;
10535;SDS011;5316;49.538;8.352;2022-10-30T05:30:31;13.17;;;9.27;;
10535;SDS011;5316;49.538;8.352;2022-10-30T05:32:59;13.33;;;8.90;;
10535;SDS011;5316;49.538;8.352;2022-10-30T05:35:27;17.17;;;8.57;;
10535;SDS011;5316;49.538;8.352;2022-10-30T05:37:54;12.97;;;8.07;;
10535;SDS011;5316;49.538;8.352;2022-10-30T05:40:21;13.93;;;8.60;;
10535;SDS011;5316;49.538;8.352;2022-10-30T05:42:47;11.90;;;7.87;;
10535;SDS011;5316;49.538;8.352;2022-10-30T05:45:14;13.27;;;9.03;;
10535;SDS011;5316;49.538;8.352;2022-10-30T05:47:43;11.73;;;8.33;;
10535;SDS011;5316;49.538;8.352;2022-10-30T05:50:18;9.97;;;7.30;;
10535;SDS011;5316;49.538;8.352;2022-10-30T05:52:45;10.07;;;7.27;;
10535;SDS011;5316;49.538;8.352;2022-10-30T05:55:12;9.07;;;7.43;;
10535;SDS011;5316;49.538;8.352;2022-10-30T05:57:39;8.70;;;7.80;;
10535;SDS011;5316;49.538;8.352;2022-10-30T06:00:06;7.97;;;7.17;;
10535;SDS011;5316;49.538;8.352;2022-10-30T06:02:33;13.47;;;7.97;;
10535;SDS011;5316;49.538;8.352;2022-10-30T06:05:01;12.77;;;7.87;;
10535;SDS011;5316;49.538;8.352;2022-10-30T06:07:28;9.03;;;7.73;;
10535;SDS011;5316;49.538;8.352;2022-10-30T06:09:55;9.37;;;7.20;;
10535;SDS011;5316;49.538;8.352;2022-10-30T06:12:22;9.60;;;8.30;;
10535;SDS011;5316;49.538;8.352;2022-10-30T06:14:48;13.87;;;8.30;;
10535;SDS011;5316;49.538;8.352;2022-10-30T06:17:15;8.40;;;7.60;;
10535;SDS011;5316;49.538;8.352;2022-10-30T06:19:42;12.10;;;6.93;;
10535;SDS011;5316;49.538;8.352;2022-10-30T06:22:10;8.90;;;7.00;;
10535;SDS011;5316;49.538;8.352;2022-10-30T06:24:37;9.73;;;7.80;;
10535;SDS011;5316;49.538;8.352;2022-10-30T06:27:03;17.27;;;6.90;;
10535;SDS011;5316;49.538;8.352;2022-10-30T06:29:30;8.17;;;7.37;;
10535;SDS011;5316;49.538;8.352;2022-10-30T06:31:57;13.37;;;7.17;;
10535;SDS011;5316;49.538;8.352;2022-10-30T06:34:24;52.77;;;7.97;;
10535;SDS011;5316;49.538;8.352;2022-10-30T06:36:51;10.57;;;7.07;;
10535;SDS011;5316;49.538;8.352;2022-10-30T06:39:19;7.33;;;6.63;;
10535;SDS011;5316;49.538;8.352;2022-10-30T06:41:47;7.33;;;6.60;;
10535;SDS011;5316;49.538;8.352;2022-10-30T06:44:13;6.87;;;6.37;;
10535;SDS011;5316;49.538;8.352;2022-10-30T06:46:40;6.70;;;6.20;;
10535;SDS011;5316;49.538;8.352;2022-10-30T06:49:07;6.40;;;5.80;;
10535;SDS011;5316;49.538;8.352;2022-10-30T06:51:34;5.73;;;5.33;;
10535;SDS011;5316;49.538;8.352;2022-10-30T06:54:01;8.27;;;7.47;;
10535;SDS011;5316;49.538;8.352;2022-10-30T06:56:29;17.47;;;7.07;;
10535;SDS011;5316;49.538;8.352;2022-10-30T06:58:56;11.40;;;6.80;;
10535;SDS011;5316;49.538;8.352;2022-10-30T07:01:23;9.33;;;7.13;;
10535;SDS011;5316;49.538;8.352;2022-10-30T07:03:49;9.17;;;7.33;;
10535;SDS011;5316;49.538;8.352;2022-10-30T07:06:16;9.57;;;7.33;;
10535;SDS011;5316;49.538;8.352;2022-10-30T07:08:43;21.63;;;8.00;;
10535;SDS011;5316;49.538;8.352;2022-10-30T07:11:11;7.73;;;7.03;;
10535;SDS011;5316;49.538;8.352;2022-10-30T07:13:39;6.90;;;6.40;;
10535;SDS011;5316;49.538;8.352;2022-10-30T07:16:06;6.60;;;6.00;;
10535;SDS011;5316;49.538;8.352;2022-10-30T07:18:33;7.13;;;6.53;;
10535;SDS011;5316;49.538;8.352;2022-10-30T07:21:00;7.73;;;7.10;;
10535;SDS011;5316;49.538;8.352;2022-10-30T07:23:27;7.90;;;7.20;;
10535;SDS011;5316;49.538;8.352;2022-10-30T07:25:54;8.57;;;7.47;;
10535;SDS011;5316;49.538;8.352;2022-10-30T07:28:21;8.83;;;7.70;;
10535;SDS011;5316;49.538;8.352;2022-10-30T07:30:49;9.20;;;7.63;;
10535;SDS011;5316;49.538;8.352;2022-10-30T07:33:16;9.77;;;8.40;;
10535;SDS011;5316;49.538;8.352;2022-10-30T07:35:43;10.13;;;8.73;;
10535;SDS011;5316;49.538;8.352;2022-10-30T07:38:10;11.30;;;10.20;;
10535;SDS011;5316;49.538;8.352;2022-10-30T07:40:38;11.20;;;9.83;;
10535;SDS011;5316;49.538;8.352;2022-10-30T07:43:05;12.10;;;9.03;;
10535;SDS011;5316;49.538;8.352;2022-10-30T07:45:34;11.60;;;10.33;;
10535;SDS011;5316;49.538;8.352;2022-10-30T07:48:03;13.87;;;10.73;;
10535;SDS011;5316;49.538;8.352;2022-10-30T07:50:30;10.80;;;9.70;;
10535;SDS011;5316;49.538;8.352;2022-10-30T07:52:57;12.60;;;10.20;;
10535;SDS011;5316;49.538;8.352;2022-10-30T07:55:24;13.97;;;9.43;;
10535;SDS011;5316;49.538;8.352;2022-10-30T07:57:51;9.97;;;9.03;;
10535;SDS011;5316;49.538;8.352;2022-10-30T08:00:18;10.17;;;9.17;;
10535;SDS011;5316;49.538;8.352;2022-10-30T08:02:47;10.13;;;9.07;;
10535;SDS011;5316;49.538;8.352;2022-10-30T08:05:16;11.37;;;9.77;;
10535;SDS011;5316;49.538;8.352;2022-10-30T08:07:44;229.87;;;45.73;;
10535;SDS011;5316;49.538;8.352;2022-10-30T08:10:12;145.53;;;32.87;;
10535;SDS011;5316;49.538;8.352;2022-10-30T08:12:40;34.83;;;13.87;;
10535;SDS011;5316;49.538;8.352;2022-10-30T08:15:08;14.80;;;9.70;;
10535;SDS011;5316;49.538;8.352;2022-10-30T08:17:39;10.93;;;9.27;;
10535;SDS011;5316;49.538;8.352;2022-10-30T08:20:08;10.47;;;8.87;;
10535;SDS011;5316;49.538;8.352;2022-10-30T08:22:44;12.47;;;8.77;;
10535;SDS011;5316;49.538;8.352;2022-10-30T08:25:12;13.23;;;8.93;;
10535;SDS011;5316;49.538;8.352;2022-10-30T08:27:39;13.60;;;9.10;;
10535;SDS011;5316;49.538;8.352;2022-10-30T08:30:15;11.77;;;9.10;;
10535;SDS011;5316;49.538;8.352;2022-10-30T08:32:42;13.50;;;9.67;;
10535;SDS011;5316;49.538;8.352;2022-10-30T08:35:09;10.80;;;9.70;;
10535;SDS011;5316;49.538;8.352;2022-10-30T08:37:36;10.97;;;8.63;;
10535;SDS011;5316;49.538;8.352;2022-10-30T08:40:05;10.13;;;8.63;;
10535;SDS011;5316;49.538;8.352;2022-10-30T08:42:32;11.57;;;8.60;;
10535;SDS011;5316;49.538;8.352;2022-10-30T08:44:59;15.53;;;9.63;;
10535;SDS011;5316;49.538;8.352;2022-10-30T08:47:26;12.77;;;10.07;;
10535;SDS011;5316;49.538;8.352;2022-10-30T08:49:53;16.57;;;10.77;;
10535;SDS011;5316;49.538;8.352;2022-10-30T08:52:20;19.63;;;11.50;;
10535;SDS011;5316;49.538;8.352;2022-10-30T08:54:46;14.27;;;8.77;;
10535;SDS011;5316;49.538;8.352;2022-10-30T08:57:15;13.63;;;9.13;;
10535;SDS011;5316;49.538;8.352;2022-10-30T08:59:41;14.30;;;9.03;;
10535;SDS011;5316;49.538;8.352;2022-10-30T09:02:08;13.40;;;10.73;;
10535;SDS011;5316;49.538;8.352;2022-10-30T09:04:35;14.07;;;9.40;;
10535;SDS011;5316;49.538;8.352;2022-10-30T09:07:03;15.80;;;8.50;;
10535;SDS011;5316;49.538;8.352;2022-10-30T09:09:30;13.93;;;8.20;;
10535;SDS011;5316;49.538;8.352;2022-10-30T09:11:57;12.90;;;8.40;;
10535;SDS011;5316;49.538;8.352;2022-10-30T09:14:25;11.90;;;7.67;;
10535;SDS011;5316;49.538;8.352;2022-10-30T09:16:53;14.40;;;8.97;;
10535;SDS011;5316;49.538;8.352;2022-10-30T09:19:20;21.87;;;14.80;;
10535;SDS011;5316;49.538;8.352;2022-10-30T09:21:48;13.53;;;10.17;;
10535;SDS011;5316;49.538;8.352;2022-10-30T09:24:15;12.90;;;8.27;;
10535;SDS011;5316;49.538;8.352;2022-10-30T09:26:42;9.03;;;7.27;;
10535;SDS011;5316;49.538;8.352;2022-10-30T09:29:08;12.77;;;7.80;;
10535;SDS011;5316;49.538;8.352;2022-10-30T09:31:37;10.13;;;7.40;;
10535;SDS011;5316;49.538;8.352;2022-10-30T09:34:04;11.70;;;8.03;;
10535;SDS011;5316;49.538;8.352;2022-10-30T09:36:31;10.07;;;7.60;;
10535;SDS011;5316;49.538;8.352;2022-10-30T09:38:58;12.13;;;7.40;;
10535;SDS011;5316;49.538;8.352;2022-10-30T09:41:36;11.43;;;8.00;;
10535;SDS011;5316;49.538;8.352;2022-10-30T09:44:18;10.40;;;7.33;;
10535;SDS011;5316;49.538;8.352;2022-10-30T09:46:59;12.40;;;7.90;;
10535;SDS011;5316;49.538;8.352;2022-10-30T09:49:35;13.23;;;7.70;;
10535;SDS011;5316;49.538;8.352;2022-10-30T09:52:20;18.10;;;8.97;;
10535;SDS011;5316;49.538;8.352;2022-10-30T09:55:04;11.37;;;8.27;;
10535;SDS011;5316;49.538;8.352;2022-10-30T09:57:48;10.80;;;8.03;;
10535;SDS011;5316;49.538;8.352;2022-10-30T10:00:21;11.63;;;8.67;;
10535;SDS011;5316;49.538;8.352;2022-10-30T10:02:57;10.27;;;7.80;;
10535;SDS011;5316;49.538;8.352;2022-10-30T10:05:39;17.03;;;8.50;;
10535;SDS011;5316;49.538;8.352;2022-10-30T10:08:11;11.20;;;7.93;;
10535;SDS011;5316;49.538;8.352;2022-10-30T10:10:44;12.27;;;8.30;;
10535;SDS011;5316;49.538;8.352;2022-10-30T10:13:23;11.10;;;7.80;;
10535;SDS011;5316;49.538;8.352;2022-10-30T10:15:56;15.20;;;8.60;;
10535;SDS011;5316;49.538;8.352;2022-10-30T10:18:30;15.90;;;7.97;;
10535;SDS011;5316;49.538;8.352;2022-10-30T10:21:05;12.43;;;8.37;;
10535;SDS011;5316;49.538;8.352;2022-10-30T10:23:42;13.40;;;10.63;;
10535;SDS011;5316;49.538;8.352;2022-10-30T10:26:17;11.00;;;8.23;;
10535;SDS011;5316;49.538;8.352;2022-10-30T10:29:01;12.40;;;8.03;;
10535;SDS011;5316;49.538;8.352;2022-10-30T10:31:42;13.43;;;8.73;;
10535;SDS011;5316;49.538;8.352;2022-10-30T10:34:26;14.67;;;8.70;;
10535;SDS011;5316;49.538;8.352;2022-10-30T10:37:08;9.23;;;7.20;;
10535;SDS011;5316;49.538;8.352;2022-10-30T10:39:52;12.90;;;7.83;;
10535;SDS011;5316;49.538;8.352;2022-10-30T10:42:37;14.63;;;7.53;;
10535;SDS011;5316;49.538;8.352;2022-10-30T10:45:15;12.33;;;6.47;;
10535;SDS011;5316;49.538;8.352;2022-10-30T10:50:57;12.23;;;6.40;;
10535;SDS011;5316;49.538;8.352;2022-10-30T10:53:29;14.60;;;6.57;;
10535;SDS011;5316;49.538;8.352;2022-10-30T10:56:01;11.97;;;6.70;;
10535;SDS011;5316;49.538;8.352;2022-10-30T10:58:29;9.97;;;6.53;;
10535;SDS011;5316;49.538;8.352;2022-10-30T11:01:01;14.37;;;6.83;;
10535;SDS011;5316;49.538;8.352;2022-10-30T11:03:33;9.90;;;6.60;;
10535;SDS011;5316;49.538;8.352;2022-10-30T11:06:16;10.63;;;6.50;;
10535;SDS011;5316;49.538;8.352;2022-10-30T11:08:45;26.83;;;13.40;;
10535;SDS011;5316;49.538;8.352;2022-10-30T11:11:13;12.43;;;6.17;;
10535;SDS011;5316;49.538;8.352;2022-10-30T11:13:41;10.70;;;6.43;;
10535;SDS011;5316;49.538;8.352;2022-10-30T11:16:14;11.40;;;6.63;;
10535;SDS011;5316;49.538;8.352;2022-10-30T11:18:46;11.80;;;6.43;;
10535;SDS011;5316;49.538;8.352;2022-10-30T11:21:20;9.80;;;5.93;;
10535;SDS011;5316;49.538;8.352;2022-10-30T11:23:49;12.30;;;6.30;;
10535;SDS011;5316;49.538;8.352;2022-10-30T11:26:27;12.47;;;5.70;;
10535;SDS011;5316;49.538;8.352;2022-10-30T11:28:57;12.85;;;6.20;;
10535;SDS011;5316;49.538;8.352;2022-10-30T11:31:29;15.23;;;6.68;;
10535;SDS011;5316;49.538;8.352;2022-10-30T11:34:12;8.50;;;5.73;;
10535;SDS011;5316;49.538;8.352;2022-10-30T11:36:47;10.67;;;5.60;;
10535;SDS011;5316;49.538;8.352;2022-10-30T11:39:16;10.27;;;5.23;;
10535;SDS011;5316;49.538;8.352;2022-10-30T11:41:44;13.65;;;5.30;;
10535;SDS011;5316;49.538;8.352;2022-10-30T11:44:19;11.88;;;5.18;;
10535;SDS011;5316;49.538;8.352;2022-10-30T11:46:47;8.95;;;5.10;;
10535;SDS011;5316;49.538;8.352;2022-10-30T11:49:28;9.63;;;5.50;;
10535;SDS011;5316;49.538;8.352;2022-10-30T11:52:07;15.52;;;9.88;;
10535;SDS011;5316;49.538;8.352;2022-10-30T11:54:35;8.70;;;4.95;;
10535;SDS011;5316;49.538;8.352;2022-10-30T11:57:09;11.75;;;5.03;;
10535;SDS011;5316;49.538;8.352;2022-10-30T11:59:45;12.15;;;5.25;;
10535;SDS011;5316;49.538;8.352;2022-10-30T12:02:19;10.43;;;4.50;;
10535;SDS011;5316;49.538;8.352;2022-10-30T12:04:50;9.93;;;4.60;;
10535;SDS011;5316;49.538;8.352;2022-10-30T12:07:23;12.85;;;6.38;;
10535;SDS011;5316;49.538;8.352;2022-10-30T12:09:52;9.75;;;4.93;;
10535;SDS011;5316;49.538;8.352;2022-10-30T12:12:20;9.15;;;4.63;;
10535;SDS011;5316;49.538;8.352;2022-10-30T12:14:49;7.80;;;4.27;;
10535;SDS011;5316;49.538;8.352;2022-10-30T12:17:17;9.45;;;4.47;;
10535;SDS011;5316;49.538;8.352;2022-10-30T12:19:46;8.93;;;4.70;;
10535;SDS011;5316;49.538;8.352;2022-10-30T12:22:26;11.98;;;4.47;;
10535;SDS011;5316;49.538;8.352;2022-10-30T12:45:34;8.40;;;4.88;;
10535;SDS011;5316;49.538;8.352;2022-10-30T12:48:07;10.73;;;4.28;;
10535;SDS011;5316;49.538;8.352;2022-10-30T12:50:41;6.85;;;3.40;;
10535;SDS011;5316;49.538;8.352;2022-10-30T12:53:19;6.20;;;3.55;;
10535;SDS011;5316;49.538;8.352;2022-10-30T12:55:53;6.10;;;3.40;;
10535;SDS011;5316;49.538;8.352;2022-10-30T12:58:23;10.23;;;3.88;;
10535;SDS011;5316;49.538;8.352;2022-10-30T13:00:59;6.47;;;3.65;;
10535;SDS011;5316;49.538;8.352;2022-10-30T13:03:31;8.65;;;3.92;;
10535;SDS011;5316;49.538;8.352;2022-10-30T13:06:04;6.28;;;3.83;;
10535;SDS011;5316;49.538;8.352;2022-10-30T13:08:37;8.00;;;3.50;;
10535;SDS011;5316;49.538;8.352;2022-10-30T13:11:10;6.68;;;3.28;;
10535;SDS011;5316;49.538;8.352;2022-10-30T13:13:46;10.52;;;3.75;;
10535;SDS011;5316;49.538;8.352;2022-10-30T13:16:17;8.68;;;4.15;;
10535;SDS011;5316;49.538;8.352;2022-10-30T13:18:48;9.90;;;3.55;;
10535;SDS011;5316;49.538;8.352;2022-10-30T13:21:19;7.93;;;3.38;;
10535;SDS011;5316;49.538;8.352;2022-10-30T13:23:51;9.82;;;3.60;;
10535;SDS011;5316;49.538;8.352;2022-10-30T13:26:27;7.57;;;2.58;;
10535;SDS011;5316;49.538;8.352;2022-10-30T13:29:00;15.30;;;9.25;;
10535;SDS011;5316;49.538;8.352;2022-10-30T13:31:37;13.18;;;7.20;;
10535;SDS011;5316;49.538;8.352;2022-10-30T13:34:18;9.70;;;4.00;;
10535;SDS011;5316;49.538;8.352;2022-10-30T13:36:53;9.10;;;3.28;;
10535;SDS011;5316;49.538;8.352;2022-10-30T13:39:27;8.77;;;3.45;;
10535;SDS011;5316;49.538;8.352;2022-10-30T13:42:05;5.72;;;3.22;;
10535;SDS011;5316;49.538;8.352;2022-10-30T13:44:44;9.88;;;3.20;;
10535;SDS011;5316;49.538;8.352;2022-10-30T13:47:20;4.93;;;2.70;;
10535;SDS011;5316;49.538;8.352;2022-10-30T13:50:00;7.35;;;3.05;;
10535;SDS011;5316;49.538;8.352;2022-10-30T13:52:38;7.95;;;3.17;;
10535;SDS011;5316;49.538;8.352;2022-10-30T13:55:13;8.02;;;3.10;;
10535;SDS011;5316;49.538;8.352;2022-10-30T13:57:45;8.95;;;2.90;;
10535;SDS011;5316;49.538;8.352;2022-10-30T14:00:18;7.30;;;3.00;;
10535;SDS011;5316;49.538;8.352;2022-10-30T14:02:57;8.63;;;2.90;;
10535;SDS011;5316;49.538;8.352;2022-10-30T14:05:37;6.97;;;2.90;;
10535;SDS011;5316;49.538;8.352;2022-10-30T14:08:14;5.50;;;2.72;;
10535;SDS011;5316;49.538;8.352;2022-10-30T14:10:50;16.65;;;9.93;;
10535;SDS011;5316;49.538;8.352;2022-10-30T14:13:23;8.23;;;3.97;;
10535;SDS011;5316;49.538;8.352;2022-10-30T14:15:55;12.45;;;4.07;;
10535;SDS011;5316;49.538;8.352;2022-10-30T14:18:28;7.43;;;3.83;;
10535;SDS011;5316;49.538;8.352;2022-10-30T14:20:57;8.13;;;3.53;;
10535;SDS011;5316;49.538;8.352;2022-10-30T14:23:44;3.75;;;2.40;;
10535;SDS011;5316;49.538;8.352;2022-10-30T14:26:18;4.90;;;2.83;;
10535;SDS011;5316;49.538;8.352;2022-10-30T14:28:47;6.40;;;2.78;;
10535;SDS011;5316;49.538;8.352;2022-10-30T14:31:15;8.70;;;2.95;;
10535;SDS011;5316;49.538;8.352;2022-10-30T14:33:46;4.03;;;2.70;;
10535;SDS011;5316;49.538;8.352;2022-10-30T14:36:18;8.20;;;3.65;;
10535;SDS011;5316;49.538;8.352;2022-10-30T14:38:59;7.97;;;3.08;;
10535;SDS011;5316;49.538;8.352;2022-10-30T14:41:29;5.97;;;3.58;;
10535;SDS011;5316;49.538;8.352;2022-10-30T14:44:14;6.60;;;3.00;;
10535;SDS011;5316;49.538;8.352;2022-10-30T14:46:58;7.78;;;3.03;;
10535;SDS011;5316;49.538;8.352;2022-10-30T14:49:46;8.23;;;3.22;;
10535;SDS011;5316;49.538;8.352;2022-10-30T14:52:27;5.40;;;2.88;;
10535;SDS011;5316;49.538;8.352;2022-10-30T14:55:04;6.82;;;2.67;;
10535;SDS011;5316;49.538;8.352;2022-10-30T14:58:12;7.95;;;2.85;;
10535;SDS011;5316;49.538;8.352;2022-10-30T15:00:50;5.40;;;2.75;;
10535;SDS011;5316;49.538;8.352;2022-10-30T15:03:43;7.35;;;2.80;;
10535;SDS011;5316;49.538;8.352;2022-10-30T15:06:21;8.57;;;2.65;;
10535;SDS011;5316;49.538;8.352;2022-10-30T15:09:04;6.40;;;2.70;;
10535;SDS011;5316;49.538;8.352;2022-10-30T15:11:41;9.70;;;2.60;;
10535;SDS011;5316;49.538;8.352;2022-10-30T15:14:21;7.60;;;3.15;;
10535;SDS011;5316;49.538;8.352;2022-10-30T15:16:53;6.65;;;2.97;;
10535;SDS011;5316;49.538;8.352;2022-10-30T15:19:21;8.45;;;3.53;;
10535;SDS011;5316;49.538;8.352;2022-10-30T15:21:54;6.22;;;2.67;;
10535;SDS011;5316;49.538;8.352;2022-10-30T15:24:22;6.50;;;5.13;;
10535;SDS011;5316;49.538;8.352;2022-10-30T15:26:51;7.80;;;3.75;;
10535;SDS011;5316;49.538;8.352;2022-10-30T15:29:20;5.20;;;2.95;;
10535;SDS011;5316;49.538;8.352;2022-10-30T15:31:56;11.10;;;3.85;;
10535;SDS011;5316;49.538;8.352;2022-10-30T15:34:25;7.95;;;3.45;;